createdAt,value
2022-12-09T00:00:42.640Z,33.40
2022-12-09T00:03:09.343Z,38.00
2022-12-09T00:05:39.259Z,31.35
2022-12-09T00:08:05.798Z,30.15
2022-12-09T00:10:32.453Z,26.75
2022-12-09T00:12:58.963Z,33.53
2022-12-09T00:15:25.341Z,38.20
2022-12-09T00:17:51.884Z,28.90
2022-12-09T00:20:18.449Z,82.90
2022-12-09T00:22:44.983Z,71.57
2022-12-09T00:25:11.296Z,138.25
2022-12-09T00:27:37.804Z,102.63
2022-12-09T00:30:05.260Z,114.53
2022-12-09T00:32:32.289Z,148.57
2022-12-09T00:34:58.859Z,178.65
2022-12-09T00:37:25.467Z,212.73
2022-12-09T00:39:51.957Z,194.88
2022-12-09T00:42:18.345Z,168.35
2022-12-09T00:44:44.745Z,119.47
2022-12-09T00:47:11.113Z,78.22
2022-12-09T00:49:37.630Z,67.97
2022-12-09T00:52:04.209Z,85.35
2022-12-09T00:54:30.822Z,37.22
2022-12-09T00:56:57.530Z,75.10
2022-12-09T00:59:24.079Z,73.53
2022-12-09T01:01:50.706Z,98.03
2022-12-09T01:04:17.489Z,188.93
2022-12-09T01:06:44.226Z,74.30
2022-12-09T01:09:10.887Z,129.73
2022-12-09T01:11:37.370Z,116.75
2022-12-09T01:14:04.160Z,150.70
2022-12-09T01:16:33.656Z,46.75
2022-12-09T01:19:03.679Z,57.30
2022-12-09T01:21:30.658Z,135.05
2022-12-09T01:23:57.489Z,124.55
2022-12-09T01:26:24.255Z,49.53
2022-12-09T01:28:52.855Z,111.40
2022-12-09T01:31:22.499Z,116.13
2022-12-09T01:33:49.893Z,126.95
2022-12-09T01:36:19.173Z,164.20
2022-12-09T01:38:46.642Z,100.32
2022-12-09T01:41:14.927Z,94.88
2022-12-09T01:43:42.085Z,55.75
2022-12-09T01:46:09.131Z,126.13
2022-12-09T01:48:42.392Z,76.18
2022-12-09T01:51:15.722Z,60.38
2022-12-09T01:53:45.237Z,62.70
2022-12-09T01:56:27.205Z,112.93
2022-12-09T01:58:54.987Z,119.95
2022-12-09T02:01:22.398Z,170.88
2022-12-09T02:03:49.797Z,151.00
2022-12-09T02:06:16.909Z,140.32
2022-12-09T02:08:45.018Z,118.40
2022-12-09T02:11:29.522Z,117.78
2022-12-09T02:14:15.838Z,54.90
2022-12-09T02:17:05.899Z,71.85
2022-12-09T02:20:01.452Z,38.88
2022-12-09T02:23:01.376Z,43.65
2022-12-09T02:25:50.354Z,42.47
2022-12-09T02:28:17.125Z,37.63
2022-12-09T02:31:22.544Z,36.90
2022-12-09T02:34:06.068Z,34.40
2022-12-09T02:36:54.489Z,33.45
2022-12-09T02:39:28.414Z,34.63
2022-12-09T02:41:58.368Z,38.22
2022-12-09T02:44:26.958Z,35.53
2022-12-09T02:46:55.402Z,37.05
2022-12-09T02:49:24.110Z,34.85
2022-12-09T02:51:51.530Z,34.50
2022-12-09T02:54:19.919Z,34.38
2022-12-09T02:56:54.108Z,30.58
2022-12-09T02:59:21.252Z,29.42
2022-12-09T03:02:28.256Z,36.50
2022-12-09T03:05:10.234Z,36.60
2022-12-09T03:08:02.103Z,36.10
2022-12-09T03:10:52.388Z,34.63
2022-12-09T03:13:37.759Z,33.42
2022-12-09T03:16:43.420Z,33.58
2022-12-09T03:19:18.534Z,28.52
2022-12-09T03:21:48.028Z,34.17
2022-12-09T03:24:20.681Z,33.70
2022-12-09T03:26:48.732Z,32.78
2022-12-09T03:29:21.963Z,35.83
2022-12-09T03:31:50.882Z,32.45
2022-12-09T03:34:22.749Z,34.75
2022-12-09T03:36:52.049Z,32.05
2022-12-09T03:39:24.100Z,30.13
2022-12-09T03:41:57.694Z,34.20
2022-12-09T03:44:34.892Z,30.20
2022-12-09T03:47:03.332Z,31.63
2022-12-09T03:49:30.217Z,32.75
2022-12-09T03:52:18.941Z,32.30
2022-12-09T03:54:47.919Z,32.20
2022-12-09T03:57:18.976Z,33.42
2022-12-09T04:00:01.519Z,31.50
2022-12-09T04:02:29.336Z,35.13
2022-12-09T04:04:56.265Z,35.90
2022-12-09T04:07:22.999Z,35.08
2022-12-09T04:09:49.908Z,32.40
2022-12-09T04:12:16.864Z,34.38
2022-12-09T04:14:43.437Z,36.92
2022-12-09T04:17:11.400Z,36.90
2022-12-09T04:19:38.194Z,36.58
2022-12-09T04:22:04.821Z,37.95
2022-12-09T04:24:31.343Z,36.55
2022-12-09T04:26:58.077Z,38.47
2022-12-09T04:29:24.571Z,34.92
2022-12-09T04:31:51.190Z,33.47
2022-12-09T04:34:18.085Z,33.85
2022-12-09T04:36:44.950Z,34.30
2022-12-09T04:39:11.947Z,32.33
2022-12-09T04:41:38.896Z,35.63
2022-12-09T04:44:05.927Z,35.38
2022-12-09T04:46:33.090Z,32.50
2022-12-09T04:48:59.926Z,30.90
2022-12-09T04:51:26.852Z,32.55
2022-12-09T04:53:53.841Z,33.03
2022-12-09T04:56:22.345Z,34.80
2022-12-09T04:58:50.738Z,31.70
2022-12-09T05:01:24.790Z,29.48
2022-12-09T05:03:54.971Z,31.27
2022-12-09T05:06:22.258Z,32.67
2022-12-09T05:08:49.380Z,34.83
2022-12-09T05:11:18.107Z,31.63
2022-12-09T05:13:45.420Z,34.58
2022-12-09T05:16:16.871Z,30.40
2022-12-09T05:18:45.581Z,31.63
2022-12-09T05:21:15.242Z,30.27
2022-12-09T05:23:42.399Z,31.33
2022-12-09T05:26:12.553Z,33.50
2022-12-09T05:28:39.562Z,37.50
2022-12-09T05:31:10.063Z,40.65
2022-12-09T05:33:37.838Z,35.28
2022-12-09T05:36:08.805Z,39.30
2022-12-09T05:38:35.447Z,44.65
2022-12-09T05:41:02.281Z,45.00
2022-12-09T05:43:28.918Z,46.33
2022-12-09T05:45:55.989Z,42.65
2022-12-09T05:48:22.880Z,50.28
2022-12-09T05:50:59.559Z,123.88
2022-12-09T05:53:26.714Z,98.30
2022-12-09T05:55:54.134Z,59.45
2022-12-09T05:58:21.104Z,130.43
2022-12-09T06:00:48.509Z,81.85
2022-12-09T06:03:16.131Z,73.80
2022-12-09T06:05:43.307Z,45.85
2022-12-09T06:08:10.065Z,56.22
2022-12-09T06:10:41.400Z,45.47
2022-12-09T06:13:08.663Z,60.33
2022-12-09T06:15:35.894Z,70.57
2022-12-09T06:18:03.193Z,49.15
2022-12-09T06:20:30.604Z,45.83
2022-12-09T06:22:57.610Z,41.58
2022-12-09T06:25:24.211Z,39.25
2022-12-09T06:27:52.718Z,36.65
2022-12-09T06:30:19.797Z,40.17
2022-12-09T06:32:46.786Z,53.13
2022-12-09T06:35:14.163Z,68.20
2022-12-09T06:37:41.662Z,99.78
2022-12-09T06:40:09.287Z,73.50
2022-12-09T06:42:36.344Z,82.22
2022-12-09T06:45:03.906Z,166.15
2022-12-09T06:47:30.628Z,225.73
2022-12-09T06:50:04.358Z,173.63
2022-12-09T06:52:32.904Z,127.95
2022-12-09T06:54:59.442Z,164.93
2022-12-09T06:57:26.244Z,112.82
2022-12-09T06:59:53.028Z,157.27
2022-12-09T07:02:19.769Z,147.55
2022-12-09T07:04:47.054Z,176.65
2022-12-09T07:07:15.140Z,94.32
2022-12-09T07:09:41.932Z,137.65
2022-12-09T07:12:08.605Z,137.68
2022-12-09T07:14:36.374Z,102.53
2022-12-09T07:17:03.900Z,146.82
2022-12-09T07:19:31.354Z,88.95
2022-12-09T07:21:58.032Z,140.32
2022-12-09T07:24:25.411Z,143.93
2022-12-09T07:26:52.091Z,190.85
2022-12-09T07:29:19.503Z,166.55
2022-12-09T07:31:47.703Z,172.55
2022-12-09T07:34:14.523Z,116.80
2022-12-09T07:36:41.367Z,127.07
2022-12-09T07:39:12.100Z,176.05
2022-12-09T07:41:39.446Z,224.40
2022-12-09T07:44:06.228Z,87.22
2022-12-09T07:46:33.226Z,87.55
2022-12-09T07:49:02.775Z,55.42
2022-12-09T07:51:29.717Z,164.13
2022-12-09T07:53:56.486Z,114.18
2022-12-09T07:56:24.026Z,112.20
2022-12-09T07:58:53.342Z,130.68
2022-12-09T08:01:26.726Z,121.78
2022-12-09T08:03:54.202Z,66.50
2022-12-09T08:06:24.809Z,69.07
2022-12-09T08:08:51.986Z,101.93
2022-12-09T08:11:25.241Z,78.82
2022-12-09T08:13:52.601Z,67.47
2022-12-09T08:16:21.521Z,67.35
2022-12-09T08:18:50.449Z,53.22
2022-12-09T08:21:29.262Z,66.47
2022-12-09T08:23:58.272Z,54.95
2022-12-09T08:26:27.278Z,84.32
2022-12-09T08:28:54.158Z,176.73
2022-12-09T08:31:23.427Z,82.03
2022-12-09T08:33:50.995Z,60.70
2022-12-09T08:36:26.377Z,65.07
2022-12-09T08:38:53.088Z,111.75
2022-12-09T08:41:38.557Z,57.78
2022-12-09T08:44:09.822Z,59.80
2022-12-09T08:46:38.475Z,54.33
2022-12-09T08:49:06.401Z,60.65
2022-12-09T08:51:34.096Z,56.22
2022-12-09T08:54:01.418Z,57.88
2022-12-09T08:56:28.511Z,57.65
2022-12-09T08:58:55.829Z,59.72
2022-12-09T09:01:32.256Z,66.90
2022-12-09T09:04:05.532Z,65.32
2022-12-09T09:06:35.161Z,59.78
2022-12-09T09:09:02.024Z,59.90
2022-12-09T09:11:28.790Z,56.90
2022-12-09T09:13:55.387Z,54.55
2022-12-09T09:16:24.041Z,55.03
2022-12-09T09:18:51.138Z,64.85
2022-12-09T09:21:21.004Z,55.10
2022-12-09T09:23:48.220Z,63.05
2022-12-09T09:26:20.760Z,57.55
2022-12-09T09:28:48.061Z,60.13
2022-12-09T09:31:17.612Z,60.05
2022-12-09T09:33:45.117Z,59.60
2022-12-09T09:36:14.993Z,61.78
2022-12-09T09:38:41.801Z,57.40
2022-12-09T09:41:20.445Z,55.10
2022-12-09T09:43:47.836Z,54.67
2022-12-09T09:46:33.327Z,54.38
2022-12-09T09:49:01.589Z,54.88
2022-12-09T09:51:28.652Z,50.00
2022-12-09T09:53:55.539Z,55.15
2022-12-09T09:56:36.836Z,58.00
2022-12-09T09:59:16.183Z,55.05
2022-12-09T10:01:49.703Z,60.15
2022-12-09T10:04:59.052Z,58.85
2022-12-09T10:07:31.349Z,57.58
2022-12-09T10:10:17.806Z,58.88
2022-12-09T10:13:18.492Z,58.67
2022-12-09T10:16:14.434Z,54.50
2022-12-09T10:19:07.695Z,58.33
2022-12-09T10:21:41.080Z,54.60
2022-12-09T10:24:26.020Z,57.70
2022-12-09T10:27:12.650Z,56.72
2022-12-09T10:29:56.655Z,59.22
2022-12-09T10:32:26.773Z,55.80
2022-12-09T10:34:53.425Z,55.08
2022-12-09T10:37:35.215Z,53.83
2022-12-09T10:40:08.038Z,51.47
2022-12-09T10:48:44.591Z,53.25
2022-12-09T10:51:25.975Z,49.85
2022-12-09T10:54:19.345Z,54.13
2022-12-09T10:57:29.044Z,50.33
2022-12-09T11:00:07.675Z,56.08
2022-12-09T11:02:34.840Z,49.40
2022-12-09T11:05:20.042Z,48.55
2022-12-09T11:07:51.558Z,48.08
2022-12-09T11:10:22.339Z,52.67
2022-12-09T11:12:57.307Z,52.75
2022-12-09T11:15:28.653Z,45.22
2022-12-09T11:18:08.013Z,50.15
2022-12-09T11:20:35.945Z,48.30
2022-12-09T11:23:05.399Z,44.75
2022-12-09T11:25:36.090Z,45.72
2022-12-09T11:28:30.560Z,46.65
2022-12-09T11:33:58.627Z,51.00
2022-12-09T11:36:30.980Z,47.97
2022-12-09T11:39:30.178Z,48.03
2022-12-09T11:42:18.589Z,45.38
2022-12-09T11:45:16.021Z,43.40
2022-12-09T11:48:23.040Z,43.97
2022-12-09T11:50:42.135Z,42.13
2022-12-09T11:53:11.500Z,48.92
2022-12-09T11:55:46.391Z,45.20
2022-12-09T11:58:21.187Z,46.15
2022-12-09T12:01:10.549Z,43.15
2022-12-09T12:03:42.089Z,43.13
2022-12-09T12:06:27.155Z,45.47
2022-12-09T12:09:04.499Z,38.35
2022-12-09T12:11:44.908Z,37.80
2022-12-09T12:14:16.791Z,35.53
2022-12-09T12:16:57.210Z,36.28
2022-12-09T12:19:40.620Z,35.90
2022-12-09T12:22:20.392Z,45.38
2022-12-09T12:25:18.310Z,38.97
2022-12-09T12:28:03.316Z,35.83
2022-12-09T12:30:39.708Z,37.33
2022-12-09T12:36:31.599Z,35.13
2022-12-09T12:38:57.874Z,34.08
2022-12-09T12:41:42.800Z,38.88
2022-12-09T12:44:56.244Z,43.25
2022-12-09T12:48:08.115Z,34.55
2022-12-09T12:53:16.153Z,37.33
2022-12-09T12:55:57.821Z,40.75
2022-12-09T12:59:02.745Z,39.72
2022-12-09T13:01:41.240Z,38.75
2022-12-09T13:04:31.547Z,41.22
2022-12-09T13:07:09.692Z,40.83
2022-12-09T13:09:48.232Z,38.17
2022-12-09T13:12:45.352Z,38.97
2022-12-09T13:15:18.184Z,37.33
2022-12-09T13:17:47.953Z,39.95
2022-12-09T13:20:44.081Z,42.92
2022-12-09T13:23:27.935Z,43.92
2022-12-09T13:26:24.888Z,37.25
2022-12-09T13:29:06.264Z,40.03
2022-12-09T13:31:38.021Z,39.42
2022-12-09T13:34:26.265Z,39.10
2022-12-09T13:36:52.667Z,44.20
2022-12-09T13:39:40.879Z,40.90
2022-12-09T13:42:46.350Z,38.75
2022-12-09T13:45:25.097Z,41.63
2022-12-09T13:47:55.563Z,38.67
2022-12-09T13:50:36.198Z,38.15
2022-12-09T13:53:07.457Z,40.15
2022-12-09T13:55:39.782Z,38.55
2022-12-09T13:58:06.079Z,42.97
2022-12-09T14:00:33.788Z,38.90
2022-12-09T14:03:12.194Z,47.22
2022-12-09T14:05:40.039Z,35.78
2022-12-09T14:08:20.908Z,35.45
2022-12-09T14:10:50.232Z,32.35
2022-12-09T14:13:29.511Z,33.38
2022-12-09T14:16:26.333Z,36.10
2022-12-09T14:18:52.880Z,31.48
2022-12-09T14:21:19.309Z,36.45
2022-12-09T14:24:07.235Z,35.30
2022-12-09T14:26:40.235Z,39.33
2022-12-09T14:31:49.727Z,33.63
2022-12-09T14:37:02.270Z,33.65
2022-12-09T14:39:36.900Z,36.60
2022-12-09T14:42:35.156Z,37.28
2022-12-09T14:45:01.488Z,32.85
2022-12-09T14:47:38.362Z,32.95
2022-12-09T14:50:12.912Z,41.00
2022-12-09T14:52:57.725Z,39.80
2022-12-09T14:55:26.146Z,36.05
2022-12-09T14:57:55.781Z,33.92
2022-12-09T15:00:40.703Z,37.25
2022-12-09T15:03:44.921Z,44.08
2022-12-09T15:06:16.735Z,41.67
2022-12-09T15:08:43.254Z,39.35
2022-12-09T15:11:16.572Z,43.75
2022-12-09T15:13:46.274Z,43.38
2022-12-09T15:16:16.303Z,41.47
2022-12-09T15:18:44.696Z,39.72
2022-12-09T15:21:22.380Z,42.33
2022-12-09T15:23:48.824Z,42.58
2022-12-09T15:26:22.111Z,39.47
2022-12-09T15:28:50.440Z,44.92
2022-12-09T15:31:23.051Z,43.13
2022-12-09T15:33:52.072Z,44.03
2022-12-09T15:36:27.446Z,41.67
2022-12-09T15:39:01.167Z,41.83
2022-12-09T15:41:53.968Z,42.67
2022-12-09T15:44:24.529Z,43.10
2022-12-09T15:46:52.814Z,34.40
2022-12-09T15:49:25.167Z,44.95
2022-12-09T15:51:55.219Z,30.65
2022-12-09T15:54:26.935Z,39.40
2022-12-09T15:56:59.818Z,37.15
2022-12-09T16:01:59.287Z,38.40
2022-12-09T16:04:34.947Z,40.60
2022-12-09T16:07:06.836Z,39.20
2022-12-09T16:09:35.230Z,39.13
2022-12-09T16:12:02.060Z,42.92
2022-12-09T16:14:44.275Z,41.55
2022-12-09T16:17:21.692Z,48.30
2022-12-09T16:19:48.257Z,49.08
2022-12-09T16:22:14.835Z,52.78
2022-12-09T16:25:14.615Z,47.08
2022-12-09T16:27:45.924Z,48.72
2022-12-09T16:30:14.652Z,45.45
2022-12-09T16:32:47.875Z,56.13
2022-12-09T16:35:17.407Z,48.25
2022-12-09T16:38:09.659Z,53.33
2022-12-09T16:40:45.424Z,47.67
2022-12-09T16:43:17.756Z,48.20
2022-12-09T16:46:16.733Z,47.25
2022-12-09T16:48:43.267Z,46.80
2022-12-09T16:51:13.980Z,48.95
2022-12-09T16:53:46.313Z,53.53
2022-12-09T16:56:33.573Z,38.70
2022-12-09T16:59:00.030Z,48.42
2022-12-09T17:01:35.173Z,50.55
2022-12-09T17:04:24.250Z,50.88
2022-12-09T17:06:50.933Z,52.33
2022-12-09T17:09:17.472Z,52.60
2022-12-09T17:11:48.573Z,47.83
2022-12-09T17:14:15.657Z,49.88
2022-12-09T17:16:42.116Z,57.40
2022-12-09T17:19:08.649Z,55.88
2022-12-09T17:21:35.014Z,50.13
2022-12-09T17:24:01.545Z,52.70
2022-12-09T17:26:27.882Z,53.53
2022-12-09T17:28:59.819Z,51.55
2022-12-09T17:31:28.179Z,53.42
2022-12-09T17:33:57.155Z,57.70
2022-12-09T17:36:24.766Z,53.22
2022-12-09T17:38:51.485Z,53.70
2022-12-09T17:41:23.521Z,53.95
2022-12-09T17:43:50.218Z,57.60
2022-12-09T17:46:16.782Z,56.45
2022-12-09T17:48:43.482Z,58.45
2022-12-09T17:51:12.491Z,54.13
2022-12-09T17:53:40.798Z,54.15
2022-12-09T17:56:13.014Z,52.22
2022-12-09T17:58:39.851Z,56.33
2022-12-09T18:01:17.484Z,60.45
2022-12-09T18:04:02.888Z,52.67
2022-12-09T18:06:34.536Z,61.92
2022-12-09T18:09:02.981Z,59.35
2022-12-09T18:11:29.575Z,59.10
2022-12-09T18:13:56.095Z,62.55
2022-12-09T18:16:22.674Z,54.03
2022-12-09T18:18:49.708Z,50.67
2022-12-09T18:21:16.797Z,55.90
2022-12-09T18:23:43.724Z,57.75
2022-12-09T18:26:13.479Z,57.50
2022-12-09T18:28:40.156Z,57.55
2022-12-09T18:31:08.133Z,56.08
2022-12-09T18:33:34.919Z,58.67
2022-12-09T18:36:06.096Z,61.72
2022-12-09T18:38:32.613Z,58.78
2022-12-09T18:41:01.623Z,62.40
2022-12-09T18:43:37.960Z,65.28
2022-12-09T18:46:25.915Z,61.50
2022-12-09T18:49:05.492Z,51.83
2022-12-09T18:51:32.669Z,55.88
2022-12-09T18:54:00.148Z,56.33
2022-12-09T18:56:27.736Z,63.05
2022-12-09T18:59:10.220Z,60.83
2022-12-09T19:01:40.330Z,57.17
2022-12-09T19:04:11.272Z,55.92
2022-12-09T19:06:39.325Z,60.53
2022-12-09T19:09:08.722Z,58.13
2022-12-09T19:11:37.400Z,59.00
2022-12-09T19:14:05.490Z,59.92
2022-12-09T19:16:32.385Z,56.30
2022-12-09T19:19:03.838Z,61.03
2022-12-09T19:21:34.357Z,58.30
2022-12-09T19:24:00.664Z,57.72
2022-12-09T19:26:31.805Z,61.63
2022-12-09T19:29:01.026Z,59.28
2022-12-09T19:31:30.167Z,55.60
2022-12-09T19:34:01.698Z,59.10
2022-12-09T19:36:29.933Z,56.38
2022-12-09T19:38:58.069Z,56.85
2022-12-09T19:41:24.419Z,54.10
2022-12-09T19:43:55.345Z,55.97
2022-12-09T19:46:22.256Z,54.33
2022-12-09T19:48:48.858Z,59.05
2022-12-09T19:51:17.166Z,55.28
2022-12-09T19:53:43.869Z,52.60
2022-12-09T19:56:16.516Z,52.90
2022-12-09T19:58:43.830Z,55.05
2022-12-09T20:01:19.473Z,52.25
2022-12-09T20:03:47.902Z,53.35
2022-12-09T20:06:16.224Z,55.67
2022-12-09T20:08:44.760Z,56.85
2022-12-09T20:11:23.776Z,49.88
2022-12-09T20:13:51.052Z,49.90
2022-12-09T20:16:20.333Z,48.70
2022-12-09T20:18:48.462Z,53.55
2022-12-09T20:21:17.799Z,49.85
2022-12-09T20:23:45.440Z,50.75
2022-12-09T20:26:32.507Z,44.13
2022-12-09T20:29:02.858Z,48.67
2022-12-09T20:31:31.590Z,39.88
2022-12-09T20:34:01.723Z,30.20
2022-12-09T20:36:30.695Z,26.77
2022-12-09T20:39:00.080Z,25.95
2022-12-09T20:41:28.017Z,23.67
2022-12-09T20:43:56.485Z,24.73
2022-12-09T20:46:29.599Z,27.35
2022-12-09T20:48:57.055Z,30.77
2022-12-09T20:51:34.801Z,28.25
2022-12-09T20:54:02.013Z,24.38
2022-12-09T20:56:29.840Z,28.92
2022-12-09T20:58:57.135Z,33.55
2022-12-09T21:01:31.174Z,34.20
2022-12-09T21:03:58.922Z,35.00
2022-12-09T21:06:29.340Z,36.45
2022-12-09T21:08:57.334Z,30.73
2022-12-09T21:11:25.162Z,29.80
2022-12-09T21:13:54.291Z,29.55
2022-12-09T21:16:25.244Z,30.35
2022-12-09T21:18:56.929Z,30.95
2022-12-09T21:21:25.253Z,25.02
2022-12-09T21:23:54.228Z,27.15
2022-12-09T21:26:22.710Z,35.60
2022-12-09T21:28:49.102Z,31.52
2022-12-09T21:31:22.696Z,37.65
2022-12-09T21:33:51.206Z,25.25
2022-12-09T21:36:24.052Z,26.17
2022-12-09T21:38:51.324Z,21.55
2022-12-09T21:41:21.163Z,21.00
2022-12-09T21:43:47.815Z,25.00
2022-12-09T21:46:20.585Z,25.23
2022-12-09T21:48:52.063Z,27.00
2022-12-09T21:51:20.201Z,28.55
2022-12-09T21:53:47.229Z,38.78
2022-12-09T21:56:22.165Z,33.53
2022-12-09T21:58:50.272Z,36.13
2022-12-09T22:01:28.710Z,40.25
2022-12-09T22:03:56.646Z,39.40
2022-12-09T22:06:23.806Z,28.95
2022-12-09T22:08:50.757Z,35.47
2022-12-09T22:11:20.714Z,31.90
2022-12-09T22:13:47.641Z,32.95
2022-12-09T22:16:26.883Z,33.90
2022-12-09T22:18:55.191Z,32.97
2022-12-09T22:21:25.484Z,35.30
2022-12-09T22:23:54.215Z,38.53
2022-12-09T22:26:21.231Z,35.50
2022-12-09T22:28:47.750Z,32.92
2022-12-09T22:31:23.211Z,35.50
2022-12-09T22:33:51.439Z,38.97
2022-12-09T22:36:19.035Z,38.97
2022-12-09T22:38:46.503Z,36.28
2022-12-09T22:41:15.719Z,39.97
2022-12-09T22:43:43.283Z,43.03
2022-12-09T22:46:12.896Z,50.35
2022-12-09T22:48:40.388Z,49.08
2022-12-09T22:51:10.680Z,45.78
2022-12-09T22:53:37.224Z,41.92
2022-12-09T22:56:04.133Z,47.75
2022-12-09T22:58:30.943Z,46.50
2022-12-09T23:00:57.357Z,45.25
2022-12-09T23:03:24.408Z,44.00
2022-12-09T23:05:50.980Z,38.58
2022-12-09T23:08:17.788Z,35.38
2022-12-09T23:10:44.161Z,36.85
2022-12-09T23:13:10.627Z,41.35
2022-12-09T23:15:37.240Z,45.30
2022-12-09T23:18:03.940Z,35.95
2022-12-09T23:20:30.281Z,36.45
2022-12-09T23:22:56.580Z,32.63
2022-12-09T23:25:23.126Z,33.58
2022-12-09T23:27:49.427Z,34.10
2022-12-09T23:30:15.840Z,32.08
2022-12-09T23:32:42.574Z,36.50
2022-12-09T23:35:09.414Z,36.15
2022-12-09T23:37:35.720Z,38.08
2022-12-09T23:40:02.081Z,37.08
2022-12-09T23:42:28.433Z,36.50
2022-12-09T23:44:54.751Z,35.92
2022-12-09T23:47:21.105Z,34.33
2022-12-09T23:49:47.423Z,39.22
2022-12-09T23:52:13.731Z,35.95
2022-12-09T23:54:40.146Z,37.95
2022-12-09T23:57:06.539Z,35.83
2022-12-09T23:59:32.852Z,35.45
